Time;durP1;ratioP1;P1;durP2;ratioP2;P2;SDS_P1;SDS_P2;PMS_P1;PMS_P2;Temp;Humidity;BMP_temperature;BMP_pressure;BME280_temperature;BME280_humidity;BME280_pressure;Samples;Min_cycle;Max_cycle;Signal;HPM_P1;HPM_P2
2021/12/28 00:02:15;;;;;;;;;;;;;;;-5.13;92.84;97528.34;1753010;81;22049;-85
2021/12/28 00:04:41;;;;;;;;;;;;;;;-5.15;92.75;97531.37;1738639;81;26030;-85
2021/12/28 00:07:07;;;;;;;;;;;;;;;-5.11;92.69;97523.20;1756708;81;24379;-85
2021/12/28 00:09:33;;;;;;;;;;;;;;;-5.21;92.56;97519.19;1757391;81;20205;-85
2021/12/28 00:11:59;;;;;;;;;;;;;;;-5.35;92.39;97528.43;1753007;81;24714;-85
2021/12/28 00:14:34;;;;;;;;;;;;;;;-5.36;92.32;97523.36;1754947;81;22267;-85
2021/12/28 00:19:25;;;;;;;;;;;;;;;-5.62;91.98;97516.27;1709851;81;24461;-85
2021/12/28 00:21:51;;;;;;;;;;;;;;;-5.70;91.85;97521.52;1747821;81;20216;-85
2021/12/28 00:24:17;;;;;;;;;;;;;;;-5.65;91.77;97517.59;1754717;80;24724;-85
2021/12/28 00:26:43;;;;;;;;;;;;;;;-5.78;91.61;97511.89;1749355;81;21802;-85
2021/12/28 00:29:09;;;;;;;;;;;;;;;-5.92;91.42;97505.85;1755694;81;26005;-85
2021/12/28 00:31:37;;;;;;;;;;;;;;;-6.07;91.24;97503.61;1732583;81;20641;-85
2021/12/28 00:34:07;;;;;;;;;;;;;;;-6.20;91.06;97502.58;1755724;80;20317;-85
2021/12/28 00:36:31;;;;;;;;;;;;;;;-6.22;90.94;97505.61;1751289;81;24734;-84
2021/12/28 00:39:03;;;;;;;;;;;;;;;-6.31;90.76;97506.60;1753185;80;22047;-85
2021/12/28 00:41:29;;;;;;;;;;;;;;;-6.44;90.59;97503.45;1754858;81;26519;-85
2021/12/28 00:43:55;;;;;;;;;;;;;;;-6.49;90.46;97506.48;1752466;81;24590;-85
2021/12/28 00:46:22;;;;;;;;;;;;;;;-6.49;90.36;97510.77;1752078;81;20222;-85
2021/12/28 00:48:48;;;;;;;;;;;;;;;-6.50;90.29;97506.53;1755552;81;24741;-84
2021/12/28 00:51:14;;;;;;;;;;;;;;;-6.54;90.20;97505.73;1749300;81;22187;-84
2021/12/28 00:53:40;;;;;;;;;;;;;;;-6.54;90.16;97508.27;1752883;81;25999;-84
2021/12/28 00:56:07;;;;;;;;;;;;;;;-6.45;90.16;97509.84;1753544;81;24378;-85
2021/12/28 00:58:33;;;;;;;;;;;;;;;-6.48;90.13;97504.36;1757692;81;20273;-85
2021/12/28 01:00:59;;;;;;;;;;;;;;;-6.57;90.06;97512.16;1752150;81;24794;-85
2021/12/28 01:03:26;;;;;;;;;;;;;;;-6.67;89.96;97513.61;1754901;81;22051;-84
2021/12/28 01:05:52;;;;;;;;;;;;;;;-6.83;89.84;97502.42;1729235;81;25950;-85
2021/12/28 01:08:20;;;;;;;;;;;;;;;-6.89;89.71;97505.06;1723159;82;20596;-84
2021/12/28 01:10:53;;;;;;;;;;;;;;;-6.85;89.67;97502.03;1751850;80;20306;-84
2021/12/28 01:13:19;;;;;;;;;;;;;;;-6.84;89.64;97498.20;1755871;81;24814;-85
2021/12/28 01:15:45;;;;;;;;;;;;;;;-6.81;89.62;97507.03;1756959;81;21976;-85
2021/12/28 01:18:12;;;;;;;;;;;;;;;-6.77;89.63;97501.05;1752688;81;26055;-84
2021/12/28 01:20:40;;;;;;;;;;;;;;;-6.69;89.67;97494.55;1753314;81;24393;-85
2021/12/28 01:23:06;;;;;;;;;;;;;;;-6.60;89.77;97489.76;1754260;81;20218;-86
2021/12/28 01:25:32;;;;;;;;;;;;;;;-6.49;89.88;97488.67;1755430;81;24729;-85
2021/12/28 01:27:59;;;;;;;;;;;;;;;-6.28;90.05;97492.56;1753471;81;21903;-85
2021/12/28 01:30:26;;;;;;;;;;;;;;;-6.29;90.13;97490.88;1756671;80;26063;-84
2021/12/28 01:32:52;;;;;;;;;;;;;;;-6.19;90.24;97484.74;1760407;80;24425;-84
2021/12/28 01:35:19;;;;;;;;;;;;;;;-6.19;90.30;97479.65;1764370;80;20225;-84
2021/12/28 01:37:46;;;;;;;;;;;;;;;-6.17;90.33;97478.36;1759639;80;24769;-84
2021/12/28 01:40:13;;;;;;;;;;;;;;;-6.24;90.35;97467.88;1767927;80;22242;-84
2021/12/28 01:42:56;;;;;;;;;;;;;;;-6.30;90.33;97470.53;1762000;80;26649;-84
2021/12/28 01:45:24;;;;;;;;;;;;;;;-6.22;90.42;97468.70;1758632;81;24381;-85
2021/12/28 01:47:50;;;;;;;;;;;;;;;-6.18;90.46;97460.12;1754364;81;20320;-85
2021/12/28 01:50:16;;;;;;;;;;;;;;;-6.05;90.59;97468.75;1754162;81;24815;-85
2021/12/28 01:52:43;;;;;;;;;;;;;;;-5.84;90.76;97475.11;1757727;81;22100;-85
2021/12/28 01:55:09;;;;;;;;;;;;;;;-5.68;90.95;97477.74;1755674;79;26237;-85
2021/12/28 01:57:35;;;;;;;;;;;;;;;-5.57;91.10;97482.61;1763368;80;24505;-85
2021/12/28 02:00:01;;;;;;;;;;;;;;;-5.49;91.22;97480.72;1761085;80;20308;-85
2021/12/28 02:02:27;;;;;;;;;;;;;;;-5.39;91.34;97482.19;1764698;80;24762;-85
2021/12/28 02:04:53;;;;;;;;;;;;;;;-5.28;91.46;97476.41;1767285;80;22701;-84
2021/12/28 02:07:19;;;;;;;;;;;;;;;-5.28;91.51;97472.59;1756277;80;21029;-84
2021/12/28 02:09:45;;;;;;;;;;;;;;;-5.35;91.53;97478.72;1761897;80;24464;-86
2021/12/28 02:12:11;;;;;;;;;;;;;;;-5.28;91.61;97475.14;1754007;81;20202;-84
2021/12/28 02:14:43;;;;;;;;;;;;;;;-5.34;91.61;97480.80;1764129;80;24728;-84
2021/12/28 02:17:05;;;;;;;;;;;;;;;-5.46;91.55;97485.77;1755165;80;22923;-84
2021/12/28 02:19:31;;;;;;;;;;;;;;;-5.55;91.50;97482.95;1768304;80;26528;-84
2021/12/28 02:21:57;;;;;;;;;;;;;;;-5.60;91.42;97480.95;1742078;80;24364;-86
2021/12/28 02:24:23;;;;;;;;;;;;;;;-5.71;91.34;97479.06;1759524;81;20322;-86
2021/12/28 02:26:49;;;;;;;;;;;;;;;-5.76;91.26;97481.30;1753310;80;24590;-85
2021/12/28 02:29:17;;;;;;;;;;;;;;;-5.79;91.18;97478.40;1758946;80;22035;-85
2021/12/28 02:31:43;;;;;;;;;;;;;;;-5.85;91.08;97478.52;1766006;80;26137;-84
2021/12/28 02:34:09;;;;;;;;;;;;;;;-5.87;91.01;97479.44;1753240;81;24409;-84
2021/12/28 02:36:35;;;;;;;;;;;;;;;-5.92;90.94;97477.84;1754742;81;20206;-85
2021/12/28 02:39:01;;;;;;;;;;;;;;;-5.99;90.87;97473.72;1751157;81;24771;-84
2021/12/28 02:41:27;;;;;;;;;;;;;;;-6.12;90.77;97470.19;1750799;81;20835;-85
2021/12/28 02:43:55;;;;;;;;;;;;;;;-6.14;90.68;97462.58;1757527;80;26015;-85
2021/12/28 02:46:21;;;;;;;;;;;;;;;-6.19;90.61;97458.01;1754397;81;25288;-85
2021/12/28 02:48:47;;;;;;;;;;;;;;;-6.21;90.54;97455.91;1754729;81;20308;-85
2021/12/28 02:51:15;;;;;;;;;;;;;;;-6.13;90.55;97458.32;1752059;81;24731;-84
2021/12/28 02:53:42;;;;;;;;;;;;;;;-6.05;90.59;97449.65;1754372;81;22005;-85
2021/12/28 02:56:09;;;;;;;;;;;;;;;-6.10;90.56;97447.63;1753484;81;26021;-85
2021/12/28 02:58:37;;;;;;;;;;;;;;;-6.18;90.51;97439.33;1754681;80;24430;-85
2021/12/28 03:01:09;;;;;;;;;;;;;;;-6.30;90.41;97437.44;1755335;81;20221;-84
2021/12/28 03:03:36;;;;;;;;;;;;;;;-6.22;90.41;97439.42;1754611;81;24873;-86
2021/12/28 03:06:03;;;;;;;;;;;;;;;-6.08;90.47;97442.09;1728701;81;21975;-85
2021/12/28 03:08:30;;;;;;;;;;;;;;;-5.90;90.57;97444.70;1755908;81;26015;-85
2021/12/28 03:10:57;;;;;;;;;;;;;;;-5.75;90.67;97452.41;1756869;81;24551;-85
2021/12/28 03:13:25;;;;;;;;;;;;;;;-5.63;90.76;97444.52;1752936;81;20239;-85
2021/12/28 03:15:52;;;;;;;;;;;;;;;-5.57;90.85;97441.41;1753458;80;24836;-84
2021/12/28 03:18:18;;;;;;;;;;;;;;;-5.50;90.92;97448.02;1753205;81;21962;-85
2021/12/28 03:20:44;;;;;;;;;;;;;;;-5.38;91.04;97458.81;1745153;80;25958;-84
2021/12/28 03:23:16;;;;;;;;;;;;;;;-5.30;91.11;97453.12;1737135;81;24405;-84
2021/12/28 03:25:40;;;;;;;;;;;;;;;-5.31;91.15;97451.44;1747413;81;20238;-84
2021/12/28 03:28:06;;;;;;;;;;;;;;;-5.45;91.08;97451.73;1752155;81;24790;-84
2021/12/28 03:30:32;;;;;;;;;;;;;;;-5.55;91.03;97449.83;1743137;81;22097;-85
2021/12/28 03:32:59;;;;;;;;;;;;;;;-5.63;90.94;97447.90;1745779;81;26089;-85
2021/12/28 03:35:25;;;;;;;;;;;;;;;-5.70;90.87;97432.33;1759574;81;24521;-84
2021/12/28 03:37:51;;;;;;;;;;;;;;;-5.62;90.86;97430.91;1750169;81;20246;-85
2021/12/28 03:40:17;;;;;;;;;;;;;;;-5.60;90.85;97431.26;1756932;81;24794;-85
2021/12/28 03:42:44;;;;;;;;;;;;;;;-5.64;90.81;97424.56;1744908;80;21961;-84
2021/12/28 03:45:10;;;;;;;;;;;;;;;-5.81;90.66;97424.52;1748479;81;26139;-84
2021/12/28 03:47:37;;;;;;;;;;;;;;;-6.01;90.50;97424.55;1742642;81;24686;-84
2021/12/28 03:50:07;;;;;;;;;;;;;;;-6.11;90.34;97428.59;1717230;81;20216;-84
2021/12/28 03:52:34;;;;;;;;;;;;;;;-6.14;90.25;97425.66;1747066;81;24830;-84
2021/12/28 03:55:02;;;;;;;;;;;;;;;-6.16;90.13;97428.66;1742767;81;22024;-84
2021/12/28 03:57:28;;;;;;;;;;;;;;;-6.15;90.10;97430.77;1752783;81;26081;-85
2021/12/28 03:59:54;;;;;;;;;;;;;;;-6.22;90.01;97424.98;1753567;80;24660;-85
2021/12/28 04:02:21;;;;;;;;;;;;;;;-6.27;89.93;97427.22;1743751;81;20149;-84
2021/12/28 04:04:47;;;;;;;;;;;;;;;-6.32;89.86;97434.92;1745992;81;24798;-84
2021/12/28 04:07:18;;;;;;;;;;;;;;;-6.32;89.82;97444.26;1742634;80;21919;-84
2021/12/28 04:09:59;;;;;;;;;;;;;;;-6.36;89.74;97439.67;1746173;81;26580;-84
2021/12/28 04:12:16;;;;;;;;;;;;;;;-6.40;89.71;97435.08;1746125;81;24407;-84
2021/12/28 04:14:42;;;;;;;;;;;;;;;-6.44;89.64;97433.47;1740909;81;20168;-84
2021/12/28 04:17:08;;;;;;;;;;;;;;;-6.42;89.61;97436.81;1748862;81;24723;-85
2021/12/28 04:19:34;;;;;;;;;;;;;;;-6.44;89.58;97428.81;1746068;81;22022;-85
2021/12/28 04:22:00;;;;;;;;;;;;;;;-6.45;89.56;97432.22;1714955;81;25821;-84
2021/12/28 04:24:26;;;;;;;;;;;;;;;-6.48;89.52;97427.17;1755084;80;20242;-85
2021/12/28 04:26:53;;;;;;;;;;;;;;;-6.47;89.53;97436.06;1750110;81;20174;-84
2021/12/28 04:29:19;;;;;;;;;;;;;;;-6.44;89.52;97436.45;1752267;81;24738;-85
2021/12/28 04:31:45;;;;;;;;;;;;;;;-6.46;89.50;97428.83;1737855;81;21914;-85
2021/12/28 04:34:11;;;;;;;;;;;;;;;-6.51;89.46;97432.33;1715840;83;26052;-85
2021/12/28 04:36:38;;;;;;;;;;;;;;;-6.62;89.40;97434.23;1722758;82;24496;-85
2021/12/28 04:39:05;;;;;;;;;;;;;;;-6.77;89.28;97432.39;1721310;82;20387;-85
2021/12/28 04:41:31;;;;;;;;;;;;;;;-6.81;89.18;97429.47;1719739;82;24948;-85
2021/12/28 04:44:00;;;;;;;;;;;;;;;-6.84;89.12;97431.23;1718459;82;22031;-86
2021/12/28 04:46:25;;;;;;;;;;;;;;;-6.83;89.10;97431.65;1743415;81;25711;-84
2021/12/28 04:48:52;;;;;;;;;;;;;;;-6.86;89.04;97429.98;1749094;81;25144;-85
2021/12/28 04:51:18;;;;;;;;;;;;;;;-6.91;89.01;97425.84;1742034;81;20255;-85
2021/12/28 04:53:44;;;;;;;;;;;;;;;-6.93;88.99;97430.13;1742825;81;24712;-85
2021/12/28 04:56:10;;;;;;;;;;;;;;;-6.91;88.98;97423.30;1725058;81;20870;-86
2021/12/28 04:58:37;;;;;;;;;;;;;;;-6.90;88.99;97424.55;1721458;81;26032;-86
2021/12/28 05:01:03;;;;;;;;;;;;;;;-6.91;89.01;97433.47;1713877;81;24613;-85
2021/12/28 05:03:29;;;;;;;;;;;;;;;-6.92;89.01;97426.70;1741930;81;20213;-85
2021/12/28 05:05:55;;;;;;;;;;;;;;;-6.91;89.05;97415.23;1728932;81;24892;-85
2021/12/28 05:08:22;;;;;;;;;;;;;;;-6.93;89.03;97413.61;1737824;81;20255;-85
2021/12/28 05:10:49;;;;;;;;;;;;;;;-7.01;88.99;97417.97;1729914;81;25954;-85
2021/12/28 05:13:15;;;;;;;;;;;;;;;-7.02;88.99;97418.83;1729307;81;24476;-85
2021/12/28 05:15:42;;;;;;;;;;;;;;;-7.03;88.99;97420.52;1723443;81;20261;-85
2021/12/28 05:18:17;;;;;;;;;;;;;;;-6.98;89.02;97420.48;1738517;81;24349;-85
2021/12/28 05:20:44;;;;;;;;;;;;;;;-6.91;89.09;97415.23;1731206;81;22058;-85
2021/12/28 05:23:11;;;;;;;;;;;;;;;-6.84;89.18;97414.70;1720866;81;25990;-85
2021/12/28 05:25:37;;;;;;;;;;;;;;;-6.78;89.26;97412.90;1727901;81;24473;-85
2021/12/28 05:28:03;;;;;;;;;;;;;;;-6.66;89.41;97416.09;1736088;81;20201;-85
2021/12/28 05:30:29;;;;;;;;;;;;;;;-6.60;89.49;97409.16;1731420;81;24656;-85
2021/12/28 05:32:55;;;;;;;;;;;;;;;-6.59;89.56;97405.75;1703568;81;21929;-85
2021/12/28 05:35:22;;;;;;;;;;;;;;;-6.61;89.60;97402.84;1684726;84;26063;-85
2021/12/28 05:37:48;;;;;;;;;;;;;;;-6.53;89.71;97401.81;1695059;83;25012;-85
2021/12/28 05:40:15;;;;;;;;;;;;;;;-6.41;89.80;97404.56;1680870;84;20571;-85
2021/12/28 05:42:41;;;;;;;;;;;;;;;-6.43;89.83;97403.75;1684003;84;24768;-84
2021/12/28 05:45:07;;;;;;;;;;;;;;;-6.31;89.92;97404.78;1690093;84;22064;-84
2021/12/28 05:47:34;;;;;;;;;;;;;;;-6.34;89.92;97398.50;1684606;83;26139;-84
2021/12/28 05:50:00;;;;;;;;;;;;;;;-6.39;89.90;97402.41;1680430;84;24463;-84
2021/12/28 05:52:26;;;;;;;;;;;;;;;-6.47;89.86;97400.86;1681651;84;20458;-85
2021/12/28 05:54:52;;;;;;;;;;;;;;;-6.35;89.92;97401.91;1685329;84;24822;-85
2021/12/28 05:57:22;;;;;;;;;;;;;;;-6.23;89.98;97399.12;1676281;85;21939;-84
2021/12/28 05:59:48;;;;;;;;;;;;;;;-6.22;89.97;97398.26;1680630;85;26001;-84
2021/12/28 06:02:14;;;;;;;;;;;;;;;-6.30;89.94;97406.47;1692555;83;24435;-85
2021/12/28 06:04:40;;;;;;;;;;;;;;;-6.19;89.97;97408.36;1695627;84;20305;-85
2021/12/28 06:07:06;;;;;;;;;;;;;;;-6.21;89.97;97406.27;1685701;84;25430;-85
2021/12/28 06:09:32;;;;;;;;;;;;;;;-6.07;90.04;97408.13;1666360;84;22061;-85
2021/12/28 06:11:58;;;;;;;;;;;;;;;-5.89;90.10;97403.52;1698517;84;25789;-84
2021/12/28 06:14:25;;;;;;;;;;;;;;;-5.94;90.08;97408.68;1701365;83;24540;-84
2021/12/28 06:16:51;;;;;;;;;;;;;;;-5.89;90.08;97413.70;1691713;83;20573;-85
2021/12/28 06:19:17;;;;;;;;;;;;;;;-5.98;90.06;97405.38;1706112;83;24840;-85
2021/12/28 06:21:43;;;;;;;;;;;;;;;-6.11;89.98;97406.95;1676879;83;21977;-85
2021/12/28 06:24:09;;;;;;;;;;;;;;;-6.26;89.84;97408.08;1702090;83;26050;-84
2021/12/28 06:26:36;;;;;;;;;;;;;;;-6.39;89.71;97406.66;1675843;85;25329;-84
2021/12/28 06:29:04;;;;;;;;;;;;;;;-6.52;89.56;97408.59;1686272;84;20170;-84
2021/12/28 06:31:31;;;;;;;;;;;;;;;-6.62;89.41;97414.72;1708074;82;25307;-85
2021/12/28 06:33:58;;;;;;;;;;;;;;;-6.71;89.26;97413.62;1725272;82;22141;-85
2021/12/28 06:36:24;;;;;;;;;;;;;;;-6.80;89.12;97415.05;1687312;84;26007;-84
2021/12/28 06:38:50;;;;;;;;;;;;;;;-6.86;88.99;97422.35;1690743;83;24443;-84
2021/12/28 06:41:16;;;;;;;;;;;;;;;-6.87;88.88;97416.02;1685354;82;20181;-84
2021/12/28 06:43:43;;;;;;;;;;;;;;;-6.94;88.79;97411.48;1719980;83;24747;-84
2021/12/28 06:46:09;;;;;;;;;;;;;;;-7.01;88.68;97417.97;1721773;81;21937;-84
2021/12/28 06:48:35;;;;;;;;;;;;;;;-7.09;88.58;97409.19;1691922;84;25901;-84
2021/12/28 06:51:03;;;;;;;;;;;;;;;-7.13;88.46;97406.73;1694195;83;24533;-86
2021/12/28 06:53:29;;;;;;;;;;;;;;;-7.21;88.39;97401.36;1694056;84;20202;-84
2021/12/28 06:55:55;;;;;;;;;;;;;;;-7.27;88.29;97407.81;1693734;84;24917;-84
2021/12/28 06:58:22;;;;;;;;;;;;;;;-7.23;88.26;97405.62;1693132;84;22054;-84
2021/12/28 07:00:48;;;;;;;;;;;;;;;-7.21;88.23;97408.98;1686949;83;26837;-84
2021/12/28 07:03:14;;;;;;;;;;;;;;;-7.22;88.20;97417.89;1684656;84;24426;-84
2021/12/28 07:05:40;;;;;;;;;;;;;;;-7.22;88.20;97412.81;1693510;84;20748;-84
2021/12/28 07:08:06;;;;;;;;;;;;;;;-7.17;88.22;97416.12;1688566;84;24899;-84
2021/12/28 07:10:32;;;;;;;;;;;;;;;-7.15;88.25;97415.67;1686898;83;21909;-84
2021/12/28 07:12:58;;;;;;;;;;;;;;;-7.03;88.32;97422.23;1719368;82;26024;-84
2021/12/28 07:15:28;;;;;;;;;;;;;;;-7.02;88.35;97419.66;1710264;83;24535;-85
2021/12/28 07:17:54;;;;;;;;;;;;;;;-6.93;88.46;97417.42;1710874;83;20266;-85
2021/12/28 07:20:21;;;;;;;;;;;;;;;-6.75;88.60;97427.25;1716709;83;24724;-85
2021/12/28 07:22:47;;;;;;;;;;;;;;;-6.70;88.68;97430.55;1711361;82;21864;-85
2021/12/28 07:25:18;;;;;;;;;;;;;;;-6.71;88.72;97425.51;1710786;83;26220;-85
2021/12/28 07:27:41;;;;;;;;;;;;;;;-6.73;88.76;97425.95;1720076;81;24408;-85
2021/12/28 07:30:09;;;;;;;;;;;;;;;-6.74;88.78;97426.39;1718092;81;20231;-85
2021/12/28 07:32:35;;;;;;;;;;;;;;;-6.58;88.89;97428.22;1710334;81;24726;-85
2021/12/28 07:35:01;;;;;;;;;;;;;;;-6.49;88.95;97432.69;1689173;83;21980;-85
2021/12/28 07:37:27;;;;;;;;;;;;;;;-6.49;89.02;97433.97;1675361;84;26674;-85
2021/12/28 07:39:53;;;;;;;;;;;;;;;-6.48;89.06;97425.90;1683743;84;20282;-85
2021/12/28 07:42:20;;;;;;;;;;;;;;;-6.47;89.10;97430.13;1689331;84;20178;-85
2021/12/28 07:44:46;;;;;;;;;;;;;;;-6.49;89.11;97431.42;1681875;84;24984;-85
2021/12/28 07:47:12;;;;;;;;;;;;;;;-6.44;89.15;97433.91;1693189;82;22150;-84
2021/12/28 07:49:38;;;;;;;;;;;;;;;-6.35;89.22;97434.56;1687269;84;26041;-85
2021/12/28 07:52:05;;;;;;;;;;;;;;;-6.30;89.27;97434.90;1690294;84;24431;-85
2021/12/28 07:54:31;;;;;;;;;;;;;;;-6.22;89.37;97426.69;1688036;84;20512;-85
2021/12/28 07:56:57;;;;;;;;;;;;;;;-6.26;89.39;97425.89;1696563;84;24725;-85
2021/12/28 07:59:23;;;;;;;;;;;;;;;-6.25;89.41;97425.46;1681779;84;22050;-85
2021/12/28 08:01:49;;;;;;;;;;;;;;;-6.29;89.40;97422.58;1689553;84;27013;-85
2021/12/28 08:04:16;;;;;;;;;;;;;;;-6.30;89.41;97423.45;1682390;84;24426;-85
2021/12/28 08:06:43;;;;;;;;;;;;;;;-6.37;89.38;97418.90;1688075;84;20929;-85
2021/12/28 08:09:09;;;;;;;;;;;;;;;-6.43;89.35;97415.20;1688964;84;24860;-85
2021/12/28 08:11:35;;;;;;;;;;;;;;;-6.47;89.32;97414.43;1686254;84;22712;-85
2021/12/28 08:14:02;;;;;;;;;;;;;;;-6.50;89.28;97409.41;1681925;84;25937;-85
2021/12/28 08:16:28;;;;;;;;;;;;;;;-6.54;89.26;97409.05;1687365;84;24438;-85
2021/12/28 08:18:54;;;;;;;;;;;;;;;-6.51;89.25;97405.62;1690296;82;20535;-85
2021/12/28 08:21:21;;;;;;;;;;;;;;;-6.54;89.25;97392.50;1681284;84;24825;-85
2021/12/28 08:23:47;;;;;;;;;;;;;;;-6.56;89.22;97392.14;1684522;84;21929;-85
2021/12/28 08:26:16;;;;;;;;;;;;;;;-6.64;89.21;97387.19;1677366;84;26041;-85
2021/12/28 08:28:41;;;;;;;;;;;;;;;-6.67;89.18;97387.69;1693233;82;24309;-85
2021/12/28 08:31:07;;;;;;;;;;;;;;;-6.64;89.21;97391.44;1687650;84;20318;-85
2021/12/28 08:33:33;;;;;;;;;;;;;;;-6.60;89.27;97393.89;1692440;83;20267;-85
2021/12/28 08:35:59;;;;;;;;;;;;;;;-6.55;89.35;97390.85;1719260;82;22277;-85
2021/12/28 08:38:25;;;;;;;;;;;;;;;-6.53;89.41;97390.80;1716345;82;25918;-85
2021/12/28 08:40:54;;;;;;;;;;;;;;;-6.49;89.51;97389.89;1703131;83;24482;-85
2021/12/28 08:43:20;;;;;;;;;;;;;;;-6.41;89.62;97401.59;1695861;82;20438;-85
2021/12/28 08:45:46;;;;;;;;;;;;;;;-6.33;89.77;97396.80;1711402;82;24895;-85
2021/12/28 08:48:12;;;;;;;;;;;;;;;-6.27;89.92;97392.86;1705382;82;21943;-85
2021/12/28 08:50:39;;;;;;;;;;;;;;;-6.19;90.07;97399.45;1709703;82;26022;-85
2021/12/28 08:53:05;;;;;;;;;;;;;;;-6.11;90.23;97395.02;1707538;82;24489;-85
2021/12/28 08:55:31;;;;;;;;;;;;;;;-6.00;90.45;97394.83;1697561;83;20211;-85
2021/12/28 08:57:57;;;;;;;;;;;;;;;-5.90;90.63;97382.73;1704631;82;24833;-85
2021/12/28 09:00:25;;;;;;;;;;;;;;;-5.80;90.82;97377.80;1686681;82;20833;-85
2021/12/28 09:02:52;;;;;;;;;;;;;;;-5.73;91.00;97377.64;1700852;82;26152;-85
2021/12/28 09:05:18;;;;;;;;;;;;;;;-5.66;91.14;97377.04;1706800;82;24514;-85
2021/12/28 09:07:44;;;;;;;;;;;;;;;-5.65;91.27;97377.02;1714792;82;20215;-86
2021/12/28 09:10:10;;;;;;;;;;;;;;;-5.65;91.37;97357.91;1708736;82;24977;-85
2021/12/28 09:12:41;;;;;;;;;;;;;;;-5.59;91.50;97361.59;1705462;82;21944;-85
2021/12/28 09:15:18;;;;;;;;;;;;;;;-5.51;91.64;97353.77;1708989;82;26081;-85
2021/12/28 09:17:44;;;;;;;;;;;;;;;-5.42;91.77;97349.72;1719403;82;24585;-85
2021/12/28 09:20:18;;;;;;;;;;;;;;;-5.37;91.91;97345.78;1701461;82;20227;-85
2021/12/28 09:22:45;;;;;;;;;;;;;;;-5.30;92.04;97340.94;1709307;82;25547;-85
2021/12/28 09:25:11;;;;;;;;;;;;;;;-5.23;92.18;97339.89;1707842;82;21950;-85
2021/12/28 09:27:38;;;;;;;;;;;;;;;-5.19;92.30;97332.15;1704904;82;26045;-85
2021/12/28 09:30:12;;;;;;;;;;;;;;;-5.13;92.42;97329.88;1709262;82;24526;-85
2021/12/28 09:32:39;;;;;;;;;;;;;;;-5.06;92.53;97329.66;1718748;81;20471;-85
2021/12/28 09:35:05;;;;;;;;;;;;;;;-5.02;92.64;97320.67;1680290;83;24858;-85
2021/12/28 09:37:33;;;;;;;;;;;;;;;-4.95;92.74;97323.44;1694924;83;22677;-85
2021/12/28 09:40:03;;;;;;;;;;;;;;;-4.89;92.87;97317.74;1750496;81;25992;-85
2021/12/28 09:42:30;;;;;;;;;;;;;;;-4.85;92.98;97307.84;1749192;81;25083;-85
2021/12/28 09:44:56;;;;;;;;;;;;;;;-4.80;93.08;97299.62;1746545;81;20562;-85
2021/12/28 09:47:22;;;;;;;;;;;;;;;-4.74;93.18;97291.80;1744362;81;24787;-85
2021/12/28 09:49:49;;;;;;;;;;;;;;;-4.70;93.26;97291.30;1679600;84;22049;-85
2021/12/28 09:52:16;;;;;;;;;;;;;;;-4.63;93.36;97299.16;1703512;83;26063;-85
2021/12/28 09:54:42;;;;;;;;;;;;;;;-4.55;93.49;97293.85;1746159;81;24514;-85
2021/12/28 09:57:08;;;;;;;;;;;;;;;-4.49;93.63;97298.34;1750427;81;20511;-85
2021/12/28 09:59:35;;;;;;;;;;;;;;;-4.43;93.72;97285.84;1752809;81;24728;-85
2021/12/28 10:02:09;;;;;;;;;;;;;;;-4.41;93.81;97274.69;1742518;81;22057;-85
2021/12/28 10:04:31;;;;;;;;;;;;;;;-4.36;93.88;97279.22;1749368;81;26263;-85
2021/12/28 10:07:16;;;;;;;;;;;;;;;-4.31;93.97;97272.73;1750607;81;24377;-85
2021/12/28 10:09:42;;;;;;;;;;;;;;;-4.27;94.07;97268.76;1752041;81;20220;-85
2021/12/28 10:12:08;;;;;;;;;;;;;;;-4.22;94.15;97264.78;1749559;80;24750;-85
2021/12/28 10:14:36;;;;;;;;;;;;;;;-4.14;94.27;97260.70;1727530;81;22603;-85
2021/12/28 10:17:03;;;;;;;;;;;;;;;-4.07;94.40;97267.30;1753180;81;25944;-86
2021/12/28 10:19:40;;;;;;;;;;;;;;;-4.01;94.50;97279.45;1750969;81;24530;-85
2021/12/28 10:22:25;;;;;;;;;;;;;;;-3.96;94.59;97281.86;1755344;81;20206;-85
2021/12/28 10:24:52;;;;;;;;;;;;;;;-3.90;94.70;97285.06;1754747;81;24813;-85
2021/12/28 10:27:20;;;;;;;;;;;;;;;-3.84;94.81;97278.48;1757192;81;21949;-85
2021/12/28 10:29:47;;;;;;;;;;;;;;;-3.75;94.93;97282.47;1759058;81;26077;-85
2021/12/28 10:32:17;;;;;;;;;;;;;;;-3.66;95.07;97279.64;1741239;81;24446;-85
2021/12/28 10:34:45;;;;;;;;;;;;;;;-3.58;95.18;97264.03;1748218;81;20236;-86
2021/12/28 10:37:20;;;;;;;;;;;;;;;-3.52;95.30;97263.39;1756409;81;24841;-85
2021/12/28 10:39:45;;;;;;;;;;;;;;;-3.45;95.40;97270.42;1734838;80;21927;-86
2021/12/28 10:42:13;;;;;;;;;;;;;;;-3.31;95.53;97272.51;1736781;81;27300;-86
2021/12/28 10:44:59;;;;;;;;;;;;;;;-3.18;95.70;97276.34;1737996;80;25306;-86
2021/12/28 10:47:27;;;;;;;;;;;;;;;-3.00;95.91;97273.96;1736504;81;20253;-86
2021/12/28 10:49:54;;;;;;;;;;;;;;;-2.90;96.07;97262.98;1732015;81;24607;-86
2021/12/28 10:52:37;;;;;;;;;;;;;;;-2.82;96.19;97274.21;1724389;82;21922;-86
2021/12/28 10:55:16;;;;;;;;;;;;;;;-2.69;96.35;97271.17;1744501;81;25993;-86
2021/12/28 10:57:42;;;;;;;;;;;;;;;-2.57;96.48;97257.09;1740390;81;24706;-87
2021/12/28 11:00:25;;;;;;;;;;;;;;;-2.40;96.66;97266.72;1750618;81;20238;-86
2021/12/28 11:02:54;;;;;;;;;;;;;;;-2.32;96.80;97259.57;1757648;81;24601;-86
2021/12/28 11:05:31;;;;;;;;;;;;;;;-2.24;96.86;97260.97;1750407;80;22232;-86
2021/12/28 11:07:58;;;;;;;;;;;;;;;-2.29;96.85;97253.88;1743220;81;26910;-86
2021/12/28 11:10:30;;;;;;;;;;;;;;;-2.36;96.80;97244.77;1745121;81;24613;-86
2021/12/28 11:12:57;;;;;;;;;;;;;;;-2.40;96.73;97245.75;1752872;81;20234;-86
2021/12/28 11:15:24;;;;;;;;;;;;;;;-2.47;96.63;97243.50;1749536;81;24739;-86
2021/12/28 11:17:51;;;;;;;;;;;;;;;-2.51;96.54;97245.80;1725809;81;22048;-87
2021/12/28 11:20:19;;;;;;;;;;;;;;;-2.50;96.44;97243.16;1752572;81;26064;-87
2021/12/28 11:23:03;;;;;;;;;;;;;;;-2.48;96.37;97240.55;1751599;81;24458;-87
2021/12/28 11:25:30;;;;;;;;;;;;;;;-2.42;96.38;97239.88;1757829;80;20261;-85
2021/12/28 11:28:13;;;;;;;;;;;;;;;-2.30;96.42;97239.86;1746395;81;24949;-86
2021/12/28 11:30:40;;;;;;;;;;;;;;;-2.28;96.44;97236.77;1743358;81;22065;-86
2021/12/28 11:33:08;;;;;;;;;;;;;;;-2.24;96.43;97233.23;1759542;80;26152;-86
2021/12/28 11:35:35;;;;;;;;;;;;;;;-2.18;96.46;97235.08;1750483;81;24533;-87
2021/12/28 11:38:01;;;;;;;;;;;;;;;-2.20;96.47;97233.05;1756553;81;20224;-86
2021/12/28 11:40:27;;;;;;;;;;;;;;;-2.23;96.42;97234.87;1755378;81;24752;-87
2021/12/28 11:42:53;;;;;;;;;;;;;;;-2.28;96.34;97226.08;1750106;81;22039;-87
2021/12/28 11:45:20;;;;;;;;;;;;;;;-2.25;96.27;97229.83;1751130;81;25930;-87
2021/12/28 11:47:46;;;;;;;;;;;;;;;-2.25;96.23;97225.98;1747226;81;24588;-87
2021/12/28 11:50:12;;;;;;;;;;;;;;;-2.23;96.20;97215.66;1756528;81;20214;-87
2021/12/28 11:52:38;;;;;;;;;;;;;;;-2.23;96.17;97210.09;1753761;81;20793;-87
2021/12/28 11:55:04;;;;;;;;;;;;;;;-2.24;96.11;97213.57;1753293;81;22042;-87
2021/12/28 11:57:30;;;;;;;;;;;;;;;-2.24;96.05;97212.28;1746646;81;26149;-87
2021/12/28 12:00:02;;;;;;;;;;;;;;;-2.25;96.03;97209.33;1749188;81;24134;-87
2021/12/28 12:02:41;;;;;;;;;;;;;;;-2.26;95.96;97202.53;1744937;81;20192;-87
2021/12/28 12:05:12;;;;;;;;;;;;;;;-2.27;95.88;97202.14;1748967;81;24650;-87
2021/12/28 12:07:43;;;;;;;;;;;;;;;-2.26;95.84;97201.25;1748794;80;21985;-87
2021/12/28 12:10:08;;;;;;;;;;;;;;;-2.26;95.79;97188.88;1751149;81;26157;-87
2021/12/28 12:12:49;;;;;;;;;;;;;;;-2.25;95.78;97189.28;1720524;81;24905;-86
2021/12/28 12:15:16;;;;;;;;;;;;;;;-2.25;95.73;97179.03;1752873;81;20271;-86
2021/12/28 12:17:45;;;;;;;;;;;;;;;-2.25;95.70;97177.75;1749766;81;24842;-86
2021/12/28 12:20:19;;;;;;;;;;;;;;;-2.23;95.69;97174.66;1753446;81;21953;-86
2021/12/28 12:22:48;;;;;;;;;;;;;;;-2.20;95.71;97173.27;1758078;81;25975;-86
2021/12/28 12:25:22;;;;;;;;;;;;;;;-2.20;95.69;97167.70;1714454;81;24217;-86
2021/12/28 12:27:50;;;;;;;;;;;;;;;-2.19;95.69;97168.10;1750694;81;20265;-86
2021/12/28 12:30:20;;;;;;;;;;;;;;;-2.19;95.67;97169.83;1752109;80;24915;-86
2021/12/28 12:32:57;;;;;;;;;;;;;;;-2.14;95.68;97170.03;1750957;81;22076;-86
2021/12/28 12:35:30;;;;;;;;;;;;;;;-2.11;95.69;97167.77;1708230;83;26736;-86
2021/12/28 12:37:57;;;;;;;;;;;;;;;-2.09;95.69;97169.00;1686091;84;24661;-87
2021/12/28 12:40:24;;;;;;;;;;;;;;;-2.08;95.68;97165.55;1674252;83;20527;-86
2021/12/28 12:43:12;;;;;;;;;;;;;;;-2.05;95.69;97167.98;1678393;83;25539;-86
2021/12/28 12:45:53;;;;;;;;;;;;;;;-2.05;95.69;97162.85;1657817;83;22068;-86
2021/12/28 12:48:41;;;;;;;;;;;;;;;-2.07;95.67;97157.78;1698930;83;26236;-85
2021/12/28 12:51:22;;;;;;;;;;;;;;;-2.08;95.63;97152.73;1707556;83;24495;-85
2021/12/28 12:53:59;;;;;;;;;;;;;;;-2.11;95.57;97140.87;1674974;83;20586;-86